Map

Track Data

SID SEASON NUMBER BASIN SUBBASIN NAME ISO_TIME NATURE LAT LON WMO_WIND WMO_PRES WMO_AGENCY TRACK_TYPE DIST2LAND LANDFALL IFLAG USA_AGENCY USA_ATCF_ID USA_LAT USA_LON USA_RECORD USA_STATUS USA_WIND USA_PRES USA_SSHS USA_R34_NE USA_R34_SE USA_R34_SW USA_R34_NW USA_R50_NE USA_R50_SE USA_R50_SW USA_R50_NW USA_R64_NE USA_R64_SE USA_R64_SW USA_R64_NW USA_POCI USA_ROCI USA_RMW USA_EYE TOKYO_LAT TOKYO_LON TOKYO_GRADE TOKYO_WIND TOKYO_PRES TOKYO_R50_DIR TOKYO_R50_LONG TOKYO_R50_SHORT TOKYO_R30_DIR TOKYO_R30_LONG TOKYO_R30_SHORT TOKYO_LAND CMA_LAT CMA_LON CMA_CAT CMA_WIND CMA_PRES HKO_LAT HKO_LON HKO_CAT HKO_WIND HKO_PRES NEWDELHI_LAT NEWDELHI_LON NEWDELHI_GRADE NEWDELHI_WIND NEWDELHI_PRES NEWDELHI_CI NEWDELHI_DP NEWDELHI_POCI REUNION_LAT REUNION_LON REUNION_TYPE REUNION_WIND REUNION_PRES REUNION_TNUM REUNION_CI REUNION_RMW REUNION_R34_NE REUNION_R34_SE REUNION_R34_SW REUNION_R34_NW REUNION_R50_NE REUNION_R50_SE REUNION_R50_SW REUNION_R50_NW REUNION_R64_NE REUNION_R64_SE REUNION_R64_SW REUNION_R64_NW BOM_LAT BOM_LON BOM_TYPE BOM_WIND BOM_PRES BOM_TNUM BOM_CI BOM_RMW BOM_R34_NE BOM_R34_SE BOM_R34_SW BOM_R34_NW BOM_R50_NE BOM_R50_SE BOM_R50_SW BOM_R50_NW BOM_R64_NE BOM_R64_SE BOM_R64_SW BOM_R64_NW BOM_ROCI BOM_POCI BOM_EYE BOM_POS_METHOD BOM_PRES_METHOD NADI_LAT NADI_LON NADI_CAT NADI_WIND NADI_PRES WELLINGTON_LAT WELLINGTON_LON WELLINGTON_WIND WELLINGTON_PRES DS824_LAT DS824_LON DS824_STAGE DS824_WIND DS824_PRES TD9636_LAT TD9636_LON TD9636_STAGE TD9636_WIND TD9636_PRES TD9635_LAT TD9635_LON TD9635_WIND TD9635_PRES TD9635_ROCI NEUMANN_LAT NEUMANN_LON NEUMANN_CLASS NEUMANN_WIND NEUMANN_PRES MLC_LAT MLC_LON MLC_CLASS MLC_WIND MLC_PRES USA_GUST BOM_GUST BOM_GUST_PER REUNION_GUST REUNION_GUST_PER USA_SEAHGT USA_SEARAD_NE USA_SEARAD_SE USA_SEARAD_SW USA_SEARAD_NW STORM_SPEED STORM_DIR
1978032S09187 1978 9 SP MM BOB 1978-01-31 12:00:00 NR -8.50000 187.000 30 997 wellington main 560 552 ________O_____ -1 -8.50000 -173.000 30 997 15 263
1978032S09187 1978 9 SP MM BOB 1978-01-31 15:00:00 NR -8.58672 186.265 main 557 557 ________P_____ -1 -8.58672 -173.735 30 997 15 263
1978032S09187 1978 9 SP MM BOB 1978-01-31 18:00:00 NR -8.68823 185.524 main 568 568 ________P_____ -1 -8.68823 -174.476 30 997 15 261
1978032S09187 1978 9 SP MM BOB 1978-01-31 21:00:00 NR -8.82063 184.771 main 587 587 ________P_____ -1 -8.82063 -175.229 30 997 15 258
1978032S09187 1978 9 SP MM BOB 1978-02-01 00:00:00 NR -9.00000 184.000 30 997 wellington main 613 613 ________O_____ -1 -9.00000 -176.000 30 997 16 255
1978032S09187 1978 9 SP MM BOB 1978-02-01 03:00:00 NR -9.23444 183.210 main 649 648 ________P_____ -1 -9.23444 -176.790 30 997 16 252
1978032S09187 1978 9 SP MM BOB 1978-02-01 06:00:00 NR -9.50021 182.426 main 688 688 ________P_____ -1 -9.50021 -177.574 30 997 16 251
1978032S09187 1978 9 SP MM BOB 1978-02-01 09:00:00 NR -9.76581 181.679 main 728 704 ________P_____ -1 -9.76581 -178.321 30 997 15 250
1978032S09187 1978 9 SP MM BOB 1978-02-01 12:00:00 NR -10.0000 181.000 30 997 wellington main 704 673 ________O_____ -1 -10.0000 -179.000 30 997 13 253
1978032S09187 1978 9 SP MM BOB 1978-02-01 15:00:00 NR -10.1605 180.375 main 673 660 ________P_____ -1 -10.1605 -179.625 30 997 12 256
1978032S09187 1978 9 SP MM BOB 1978-02-01 18:00:00 NR -10.2870 179.827 main 660 650 ________P_____ -1 -10.2870 179.827 30 997 10 257
1978032S09187 1978 9 SP MM BOB 1978-02-01 21:00:00 NR -10.3951 179.366 main 650 642 ________P_____ -1 -10.3951 179.366 30 997 8 255
1978032S09187 1978 9 SP MM BOB 1978-02-02 00:00:00 NR -10.5000 179.000 30 997 wellington main 644 634 ________O_____ -1 -10.5000 179.000 30 997 7 251
1978032S09187 1978 9 SP MM BOB 1978-02-02 03:00:00 NR -10.6042 178.735 main 638 629 ________P_____ -1 -10.6042 178.735 32 995 5 244
1978032S09187 1978 9 SP MM BOB 1978-02-02 06:00:00 NR -10.7119 178.560 main 629 620 ________P_____ -1 -10.7119 178.560 35 993 4 232
1978032S09187 1978 9 SP MM BOB 1978-02-02 09:00:00 NR -10.8387 178.429 main 623 604 ________P_____ -1 -10.8387 178.429 37 991 4 222
1978032S09187 1978 9 SP MM BOB 1978-02-02 12:00:00 NR -11.0000 178.300 40 990 wellington main 604 585 ________O_____ -1 -11.0000 178.300 40 990 5 218
1978032S09187 1978 9 SP MM BOB 1978-02-02 15:00:00 NR -11.2139 178.135 main 589 571 ________P_____ -1 -11.2139 178.135 40 990 6 216
1978032S09187 1978 9 SP MM BOB 1978-02-02 18:00:00 NR -11.4622 177.960 main 560 546 ________P_____ -1 -11.4622 177.960 40 990 6 216
1978032S09187 1978 9 SP MM BOB 1978-02-02 21:00:00 NR -11.7294 177.754 main 546 527 ________P_____ -1 -11.7294 177.754 40 990 7 220
1978032S09187 1978 9 SP MM BOB 1978-02-03 00:00:00 NR -12.0000 177.500 40 990 wellington main 527 515 ________O_____ -1 -12.0000 177.500 40 990 8 229
1978032S09187 1978 9 SP MM BOB 1978-02-03 03:00:00 NR -12.2218 177.167 main 518 511 ________P_____ -1 -12.2218 177.167 43 987 8 237
1978032S09187 1978 9 SP MM BOB 1978-02-03 06:00:00 NR -12.4478 176.787 main 514 496 ________P_____ -1 -12.4478 176.787 47 985 9 238
1978032S09187 1978 9 SP MM BOB 1978-02-03 09:00:00 NR -12.6999 176.389 main 501 492 ________P_____ -1 -12.6999 176.389 51 982 9 234
1978032S09187 1978 9 SP MM BOB 1978-02-03 12:00:00 NR -13.0000 176.000 55 980 wellington main 493 485 ________O_____ -1 -13.0000 176.000 55 980 10 227
1978032S09187 1978 9 SP MM BOB 1978-02-03 15:00:00 NR -13.3705 175.656 main 476 472 ________P_____ -1 -13.3705 175.656 57 977 10 220
1978032S09187 1978 9 SP MM BOB 1978-02-03 18:00:00 NR -13.7898 175.327 main 472 449 ________P_____ -1 -13.7898 175.327 60 975 11 216
1978032S09187 1978 9 SP MM BOB 1978-02-03 21:00:00 NR -14.2393 175.010 main 456 433 ________P_____ -1 -14.2393 175.010 62 972 11 214
1978032S09187 1978 9 SP MM BOB 1978-02-04 00:00:00 NR -14.7000 174.700 65 970 wellington main 433 417 ________O_____ -1 -14.7000 174.700 65 970 11 213
1978032S09187 1978 9 SP MM BOB 1978-02-04 03:00:00 NR -15.1549 174.385 main 417 414 ________P_____ -1 -15.1549 174.385 67 967 11 213
1978032S09187 1978 9 SP MM BOB 1978-02-04 06:00:00 NR -15.6149 174.077 main 416 414 ________P_____ -1 -15.6149 174.077 70 965 11 213
1978032S09187 1978 9 SP MM BOB 1978-02-04 09:00:00 NR -16.0674 173.781 main 418 417 ________P_____ -1 -16.0674 173.781 72 962 11 212
1978032S09187 1978 9 SP MM BOB 1978-02-04 12:00:00 NR -16.5000 173.500 75 960 wellington main 427 422 ________O_____ -1 -16.5000 173.500 75 960 10 212
1978032S09187 1978 9 SP MM BOB 1978-02-04 15:00:00 NR -16.8759 173.255 main 431 431 ________P_____ -1 -16.8759 173.255 77 956 9 212
1978032S09187 1978 9 SP MM BOB 1978-02-04 18:00:00 NR -17.2344 173.021 main 454 451 ________P_____ -1 -17.2344 173.021 80 952 9 212
1978032S09187 1978 9 SP MM BOB 1978-02-04 21:00:00 NR -17.6008 172.776 main 468 468 ________P_____ -1 -17.6008 172.776 82 948 9 213
1978032S09187 1978 9 SP MM BOB 1978-02-05 00:00:00 NR -18.0000 172.500 85 945 wellington main 497 497 ________O_____ -1 -18.0000 172.500 85 945 11 214
1978032S09187 1978 9 SP MM BOB 1978-02-05 03:00:00 NR -18.4847 172.145 main 503 495 ________P_____ -1 -18.4847 172.145 82 948 12 215
1978032S09187 1978 9 SP MM BOB 1978-02-05 06:00:00 NR -19.0004 171.759 main 501 489 ________P_____ -1 -19.0004 171.759 80 952 13 215
1978032S09187 1978 9 SP MM BOB 1978-02-05 09:00:00 NR -19.5159 171.367 main 500 482 ________P_____ -1 -19.5159 171.367 77 956 12 216
1978032S09187 1978 9 SP MM BOB 1978-02-05 12:00:00 NR -20.0000 171.000 75 960 wellington main 482 432 ________O_____ -1 -20.0000 171.000 75 960 11 215
1978032S09187 1978 9 SP MM BOB 1978-02-05 15:00:00 NR -20.4104 170.707 main 432 394 ________P_____ -1 -20.4104 170.707 72 962 9 214
1978032S09187 1978 9 SP MM BOB 1978-02-05 18:00:00 NR -20.7867 170.441 main 384 352 ________P_____ -1 -20.7867 170.441 70 965 9 214
1978032S09187 1978 9 SP MM BOB 1978-02-05 21:00:00 NR -21.1448 170.179 main 352 309 ________P_____ -1 -21.1448 170.179 67 967 9 215
1978032S09187 1978 9 SP MM BOB 1978-02-06 00:00:00 NR -21.5000 169.900 65 970 wellington main 309 269 ________O_____ -1 -21.5000 169.900 65 970 9 217
1978032S09187 1978 9 SP MM BOB 1978-02-06 03:00:00 NR -21.8952 169.576 main 269 226 ________P_____ -1 -21.8952 169.576 62 972 10 218
1978032S09187 1978 9 SP MM BOB 1978-02-06 06:00:00 NR -22.2873 169.230 main 226 198 ________P_____ -1 -22.2873 169.230 60 975 10 220
1978032S09187 1978 9 SP MM BOB 1978-02-06 09:00:00 NR -22.6608 168.869 main 200 172 ________P_____ -1 -22.6608 168.869 57 977 10 223
1978032S09187 1978 9 SP MM BOB 1978-02-06 12:00:00 NR -23.0000 168.500 55 980 wellington main 172 158 ________O_____ -1 -23.0000 168.500 55 980 9 228
1978032S09187 1978 9 SP MM BOB 1978-02-06 15:00:00 NR -23.2860 168.111 main 158 147 ________P_____ -1 -23.2860 168.111 51 982 9 233
1978032S09187 1978 9 SP MM BOB 1978-02-06 18:00:00 NR -23.5377 167.719 main 147 147 ________P_____ -1 -23.5377 167.719 47 985 9 235
1978032S09187 1978 9 SP MM BOB 1978-02-06 21:00:00 NR -23.7705 167.343 main 161 159 ________P_____ -1 -23.7705 167.343 43 987 8 235
1978032S09187 1978 9 SP MM BOB 1978-02-07 00:00:00 NR -24.0000 167.000 40 990 wellington main 179 178 ________O_____ -1 -24.0000 167.000 40 990 8 232
1978032S09187 1978 9 SP MM BOB 1978-02-07 03:00:00 NR -24.2294 166.693 main 201 201 ________P_____ -1 -24.2294 166.693 40 990 7 229
1978032S09187 1978 9 SP MM BOB 1978-02-07 06:00:00 NR -24.4622 166.424 main 236 236 ________P_____ -1 -24.4622 166.424 40 990 7 223
1978032S09187 1978 9 SP MM BOB 1978-02-07 09:00:00 NR -24.7139 166.193 main 262 262 ________P_____ -1 -24.7139 166.193 40 990 7 216
1978032S09187 1978 9 SP MM BOB 1978-02-07 12:00:00 NR -25.0000 166.000 40 990 wellington main 299 299 ________O_____ -1 -25.0000 166.000 40 990 7 210
1978032S09187 1978 9 SP MM BOB 1978-02-07 15:00:00 NR -25.3389 165.799 main 336 336 ________P_____ -1 -25.3389 165.799 40 990 8 205
1978032S09187 1978 9 SP MM BOB 1978-02-07 18:00:00 NR -25.7123 165.638 main 385 385 ________P_____ -1 -25.7123 165.638 40 990 8 197
1978032S09187 1978 9 SP MM BOB 1978-02-07 21:00:00 NR -26.1045 165.534 main 430 430 ________P_____ -1 -26.1045 165.534 40 990 8 189
1978032S09187 1978 9 SP MM BOB 1978-02-08 00:00:00 NR -26.5000 165.500 40 990 wellington main 473 473 ________O_____ -1 -26.5000 165.500 40 990 7 0
1978032S09187 1978 9 SP MM BOB 1978-02-08 03:00:00 NR -26.8343 165.533 main 506 506 ________P_____ -1 -26.8343 165.533 40 990 7 169
1978032S09187 1978 9 SP MM BOB 1978-02-08 06:00:00 NR -27.1749 165.638 main 547 545 ________P_____ -1 -27.1749 165.638 40 990 8 162
1978032S09187 1978 9 SP MM BOB 1978-02-08 09:00:00 NR -27.5530 165.799 main 588 588 ________P_____ -1 -27.5530 165.799 40 990 9 159
1978032S09187 1978 9 SP MM BOB 1978-02-08 12:00:00 NR -28.0000 166.000 40 990 wellington main 629 629 ________O_____ -1 -28.0000 166.000 40 990 11 164
1978032S09187 1978 9 SP MM BOB 1978-02-08 15:00:00 NR -28.6125 166.133 main 695 695 ________P_____ -1 -28.6125 166.133 37 991 13 168
1978032S09187 1978 9 SP MM BOB 1978-02-08 18:00:00 NR -29.2848 166.313 main 771 761 ________P_____ -1 -29.2848 166.313 35 993 14 163
1978032S09187 1978 9 SP MM BOB 1978-02-08 21:00:00 NR -29.9398 166.587 main 761 688 ________P_____ -1 -29.9398 166.587 32 995 14 154
1978032S09187 1978 9 SP MM BOB 1978-02-09 00:00:00 NR -30.5000 167.000 30 997 wellington main 688 630 ________O_____ -1 -30.5000 167.000 30 997 12 138
1978032S09187 1978 9 SP MM BOB 1978-02-09 03:00:00 NR -30.8555 167.528 main 622 558 ________P_____ -1 -30.8555 167.528 30 997 12 120
1978032S09187 1978 9 SP MM BOB 1978-02-09 06:00:00 NR -31.1081 168.205 main 558 489 ________P_____ -1 -31.1081 168.205 30 997 14 109
1978032S09187 1978 9 SP MM BOB 1978-02-09 09:00:00 NR -31.3069 169.029 main 489 418 ________P_____ -1 -31.3069 169.029 30 997 16 104
1978032S09187 1978 9 SP MM BOB 1978-02-09 12:00:00 NR -31.5000 170.000 30 997 wellington main 412 341 ________O_____ -1 -31.5000 170.000 30 997 19 104
1978032S09187 1978 9 SP MM BOB 1978-02-09 15:00:00 NR -31.7526 171.178 main 327 279 ________P_____ -1 -31.7526 171.178 30 997 22 103
1978032S09187 1978 9 SP MM BOB 1978-02-09 18:00:00 NR -32.0023 172.484 main 278 257 ________P_____ -1 -32.0023 172.484 30 997 23 103
1978032S09187 1978 9 SP MM BOB 1978-02-09 21:00:00 NR -32.2496 173.798 main 266 259 ________P_____ -1 -32.2496 173.798 30 997 22 103
1978032S09187 1978 9 SP MM BOB 1978-02-10 00:00:00 NR -32.5000 175.000 30 997 wellington main 289 289 ________O_____ -1 -32.5000 175.000 30 997 19 105
1978032S09187 1978 9 SP MM BOB 1978-02-10 03:00:00 NR -32.7496 175.948 main 319 315 ________P_____ -1 -32.7496 175.948 30 997 16 109
1978032S09187 1978 9 SP MM BOB 1978-02-10 06:00:00 NR -33.0127 176.769 main 344 342 ________P_____ -1 -33.0127 176.769 30 997 14 113
1978032S09187 1978 9 SP MM BOB 1978-02-10 09:00:00 NR -33.2948 177.505 main 367 367 ________P_____ -1 -33.2948 177.505 30 997 13 116
1978032S09187 1978 9 SP MM BOB 1978-02-10 12:00:00 NR -33.6000 178.200 30 997 wellington main 401 401 ________O_____ -1 -33.6000 178.200 30 997 13 118
1978032S09187 1978 9 SP MM BOB 1978-02-10 15:00:00 NR -33.9223 178.930 main 415 391 ________P_____ -1 -33.9223 178.930 32 995 14 119
1978032S09187 1978 9 SP MM BOB 1978-02-10 18:00:00 NR -34.2674 179.632 main 385 373 ________P_____ -1 -34.2674 179.632 35 993 13 122
1978032S09187 1978 9 SP MM BOB 1978-02-10 21:00:00 NR -34.6288 180.318 main 377 364 ________P_____ -1 -34.6288 -179.682 37 991 13 123
1978032S09187 1978 9 SP MM BOB 1978-02-11 00:00:00 NR -35.0000 181.000 40 990 wellington main 369 365 ________O_____ -1 -35.0000 -179.000 40 990 14 123
1978032S09187 1978 9 SP MM BOB 1978-02-11 03:00:00 NR -35.3675 181.725 main 376 376 ________P_____ -1 -35.3675 -178.275 40 990 14 122
1978032S09187 1978 9 SP MM BOB 1978-02-11 06:00:00 NR -35.7423 182.446 main 404 404 ________P_____ -1 -35.7423 -177.554 40 990 14 123
1978032S09187 1978 9 SP MM BOB 1978-02-11 09:00:00 NR -36.1209 183.144 main 437 437 ________P_____ -1 -36.1209 -176.856 40 990 13 125
1978032S09187 1978 9 SP MM BOB 1978-02-11 12:00:00 NR -36.5000 183.800 40 990 wellington main 478 478 ________O_____ -1 -36.5000 -176.200 40 990 13 127
1978032S09187 1978 9 SP MM BOB 1978-02-11 15:00:00 NR -36.8775 184.401 main 519 519 ________P_____ -1 -36.8775 -175.599 40 990 12 129
1978032S09187 1978 9 SP MM BOB 1978-02-11 18:00:00 NR -37.2533 184.957 main 564 564 ________P_____ -1 -37.2533 -175.043 40 990 11 131
1978032S09187 1978 9 SP MM BOB 1978-02-11 21:00:00 NR -37.6275 185.484 main 605 605 ________P_____ -1 -37.6275 -174.516 40 990 11 132
1978032S09187 1978 9 SP MM BOB 1978-02-12 00:00:00 NR -38.0000 186.000 40 990 wellington main 648 ________O_____ -1 -38.0000 -174.000 40 990 11 133

Digital Typhoon Data and Search

About IBTrACS Database

This database is a web-friendly format of International Best Track Archive for Climate Stewardship (IBTrACS), a global best track data archive curated by NOAA dating back to 1842.

Updated: 2021-11-26